Ansley, NE (68814)

5:25 AM CDT on September 23, 2014 (GMT -0500)
KNEANSLE2 | Change Station
CLOSE
Current Station
Personal Weather Station
Location: Ansley, NE
Elevation: 2320 ft
Nearby Weather Stations

Elev 2320 ft 41.29 °N, 99.38 °W | Updated 25 minutes ago

Rain
Rain
56.2 °F
Feels Like 56.2 °F
N
1.0
Wind Variable Wind from SW
Gusts 5.0 mph

Today
High -- | Low -- °F
--% Chance of Precip.
Yesterday
High -- | Low -- °F
Precip. -- in
7:25 AM 7:32 PM
Waning Crescent, 1% visible
Pressure 30.06 in
Visibility 10.0 miles
Clouds Mostly Cloudy 900 ft
Overcast 7500 ft
Dew Point 55 °F
Humidity 96%
Rainfall 0.03 in
Snow Depth Not available.
UV 0 out of 12
Pollen 5.40 out of 12
Air Quality Not available.
Flu Activity Not available.
SPECI KBBW 231002Z AUTO 15008KT 10SM BKN009 OVC075 14/12 A3006 RMK AO2 CIG 007V012 T01390122

More Conditions Fewer Conditions

Pressure 30.06 in
Visibility 10.0 miles
Clouds Mostly Cloudy 900 ft
Overcast 7500 ft
Dew Point 55 °F
Humidity 96%
Rainfall 0.03 in
Snow Depth Not available.
UV 0 out of 12
Pollen 5.40 out of 12
Air Quality Not available.
Flu Activity Not available.
SPECI KBBW 231002Z AUTO 15008KT 10SM BKN009 OVC075 14/12 A3006 RMK AO2 CIG 007V012 T01390122

More Conditions Fewer Conditions

Nowcast | as of 4:34 am CDT on September 23, 2014

At 432 am CDT Doppler radar indicated light to moderate rain and showers from Monowi to Burwell...moving east at 15 mph. Locations that may be affected include... Inman and Page. This rain will move through Boyd...Holt...Garfield and Wheeler counties early this morning producing 1/4 to 1/2 inch of rainfall. Other isolated showers will continue to move east through eastern Custer County producing less than 1/4 inch of rainfall.

×

10-Day Weather Forecast

Almanac

Astronomy

Sep. 23, 2014 Rise Set
Actual Time 7:25 AM CDT 7:32 PM CDT
Civil Twilight 6:58 AM CDT 8:00 PM CDT
Nautical Twilight 6:26 AM CDT 8:32 PM CDT
Astronomical Twilight 5:53 AM CDT 9:05 PM CDT
Moon 6:51 AM CDT 7:12 PM CDT
Length of Visible Light 13h 01m
Length of Day
12h 06m
Tomorrow will be 2m 44s shorter.
Waning Crescent, 1% of the Moon is Illuminated
Today
Waning Crescent
Sep 24
New
Oct 1
First Quarter
Oct 8
Full
Oct 15
Last Quarter

Today's Extremes

State Highs State Lows

Community

WunderPhotos

Upload Photos

1,755,645 photos uploaded!

Nearby

Snow Depth

Station Depth Elevation
No new snow has been reported.

Earthquake Activity

City Distance Mag. Time & Date
No recent earthquake activity has been reported nearby.
Minimum magnitude displayed is 2.5.

Coastal Water Temperatures

Place Temperature
No Stations Reporting

Nearby Weather Stations